createdAt,value
2023-01-19T00:07:22.219Z,93882.00
2023-01-19T00:54:42.804Z,93923.00
2023-01-19T00:55:43.773Z,93921.00
2023-01-19T00:56:43.777Z,93921.00
2023-01-19T00:57:43.750Z,93923.00
2023-01-19T00:58:43.737Z,93925.00
2023-01-19T00:59:43.731Z,93923.00
2023-01-19T01:00:43.759Z,93923.00
2023-01-19T01:01:45.002Z,93927.00
2023-01-19T01:02:43.999Z,93927.00
2023-01-19T01:03:43.697Z,93925.00
2023-01-19T01:04:43.683Z,93929.00
2023-01-19T01:05:43.673Z,93927.00
2023-01-19T01:06:43.668Z,93925.00
2023-01-19T01:07:43.656Z,93925.00
2023-01-19T01:08:43.661Z,93925.00
2023-01-19T01:09:43.642Z,93925.00
2023-01-19T01:10:43.652Z,93927.00
2023-01-19T01:11:43.618Z,93927.00
2023-01-19T01:12:57.740Z,93931.00
2023-01-19T01:13:43.600Z,93929.00
2023-01-19T01:14:43.604Z,93929.00
2023-01-19T01:15:43.584Z,93929.00
2023-01-19T01:16:43.635Z,93931.00
2023-01-19T01:17:43.570Z,93929.00
2023-01-19T01:18:43.554Z,93931.00
2023-01-19T01:19:43.550Z,93929.00
2023-01-19T01:20:43.535Z,93933.00
2023-01-19T01:21:43.531Z,93935.00
2023-01-19T01:22:43.520Z,93935.00
2023-01-19T01:23:43.513Z,93935.00
2023-01-19T01:24:43.509Z,93935.00
2023-01-19T01:25:43.499Z,93937.00
2023-01-19T01:26:43.508Z,93935.00
2023-01-19T01:27:43.478Z,93935.00
2023-01-19T01:28:43.460Z,93937.00
2023-01-19T01:29:43.464Z,93935.00
2023-01-19T01:30:43.588Z,93935.00
2023-01-19T01:31:43.517Z,93937.00
2023-01-19T01:32:43.451Z,93933.00
2023-01-19T01:33:43.424Z,93933.00
2023-01-19T01:34:43.404Z,93935.00
2023-01-19T01:35:43.406Z,93937.00
2023-01-19T01:36:43.406Z,93933.00
2023-01-19T01:37:43.395Z,93939.00
2023-01-19T01:38:43.379Z,93939.00
2023-01-19T01:39:43.365Z,93937.00
2023-01-19T01:40:43.351Z,93941.00
2023-01-19T01:41:43.347Z,93939.00
2023-01-19T01:42:43.422Z,93945.00
2023-01-19T01:43:43.345Z,93941.00
2023-01-19T01:44:43.315Z,93945.00
2023-01-19T01:45:43.331Z,93945.00
2023-01-19T01:46:43.301Z,93943.00
2023-01-19T01:47:43.295Z,93947.00
2023-01-19T01:48:43.281Z,93949.00
2023-01-19T01:49:43.270Z,93949.00
2023-01-19T01:50:43.260Z,93951.00
2023-01-19T01:51:43.256Z,93955.00
2023-01-19T01:52:43.249Z,93955.00
2023-01-19T01:53:43.240Z,93953.00
2023-01-19T01:54:43.228Z,93957.00
2023-01-19T01:55:43.219Z,93957.00
2023-01-19T01:56:43.202Z,93959.00
2023-01-19T01:57:43.219Z,93959.00
2023-01-19T01:58:43.217Z,93959.00
2023-01-19T01:59:43.179Z,93961.00
2023-01-19T02:00:43.267Z,93964.00
2023-01-19T02:01:43.236Z,93962.00
2023-01-19T02:02:43.152Z,93962.00
2023-01-19T02:03:43.150Z,93968.00
2023-01-19T02:04:43.132Z,93968.00
2023-01-19T02:05:43.120Z,93968.00
2023-01-19T02:06:43.122Z,93966.00
2023-01-19T02:07:43.106Z,93970.00
2023-01-19T02:08:43.103Z,93966.00
2023-01-19T02:09:43.094Z,93964.00
2023-01-19T02:10:43.076Z,93964.00
2023-01-19T02:11:43.069Z,93970.00
2023-01-19T02:12:43.064Z,93968.00
2023-01-19T02:13:43.057Z,93970.00
2023-01-19T02:14:43.075Z,93970.00
2023-01-19T02:15:43.041Z,93972.00
2023-01-19T02:16:43.102Z,93972.00
2023-01-19T02:17:43.015Z,93976.00
2023-01-19T02:18:43.019Z,93974.00
2023-01-19T02:19:42.995Z,93970.00
2023-01-19T02:20:43.008Z,93968.00
2023-01-19T02:21:43.007Z,93964.00
2023-01-19T02:22:42.967Z,93966.00
2023-01-19T02:23:42.962Z,93964.00
2023-01-19T02:24:42.951Z,93966.00
2023-01-19T02:25:42.947Z,93968.00
2023-01-19T02:26:42.931Z,93968.00
2023-01-19T02:27:42.927Z,93968.00
2023-01-19T02:28:42.916Z,93972.00
2023-01-19T02:29:42.915Z,93970.00
2023-01-19T02:30:42.936Z,93974.00
2023-01-19T02:31:42.895Z,93974.00
2023-01-19T02:32:42.880Z,93970.00
2023-01-19T02:33:42.873Z,93974.00
2023-01-19T02:34:42.865Z,93976.00
2023-01-19T02:35:42.846Z,93976.00
2023-01-19T02:36:42.841Z,93976.00
2023-01-19T02:37:42.833Z,93976.00
2023-01-19T02:38:42.823Z,93976.00
2023-01-19T02:39:42.818Z,93974.00
2023-01-19T02:40:42.810Z,93968.00
2023-01-19T02:41:42.797Z,93970.00
2023-01-19T02:42:42.795Z,93966.00
2023-01-19T02:43:42.775Z,93962.00
2023-01-19T02:44:42.774Z,93964.00
2023-01-19T02:45:42.888Z,93964.00
2023-01-19T02:46:42.815Z,93968.00
2023-01-19T02:47:42.767Z,93970.00
2023-01-19T02:48:42.762Z,93974.00
2023-01-19T02:49:42.758Z,93974.00
2023-01-19T02:50:42.719Z,93972.00
2023-01-19T02:51:42.708Z,93976.00
2023-01-19T02:52:42.693Z,93972.00
2023-01-19T02:53:42.700Z,93974.00
2023-01-19T02:54:42.693Z,93974.00
2023-01-19T02:55:42.670Z,93976.00
2023-01-19T02:56:42.665Z,93974.00
2023-01-19T02:57:42.655Z,93974.00
2023-01-19T02:58:42.652Z,93974.00
2023-01-19T02:59:42.630Z,93970.00
2023-01-19T03:00:42.622Z,93970.00
2023-01-19T03:01:42.729Z,93970.00
2023-01-19T03:02:42.662Z,93968.00
2023-01-19T03:03:42.598Z,93968.00
2023-01-19T03:04:42.591Z,93970.00
2023-01-19T03:05:42.575Z,93966.00
2023-01-19T03:06:42.570Z,93968.00
2023-01-19T03:07:42.583Z,93964.00
2023-01-19T03:08:42.575Z,93962.00
2023-01-19T03:09:42.545Z,93961.00
2023-01-19T03:10:42.531Z,93962.00
2023-01-19T03:11:42.584Z,93961.00
2023-01-19T03:12:42.511Z,93957.00
2023-01-19T03:13:42.503Z,93957.00
2023-01-19T03:14:42.507Z,93957.00
2023-01-19T03:15:42.533Z,93957.00
2023-01-19T03:16:42.566Z,93957.00
2023-01-19T03:17:42.467Z,93959.00
2023-01-19T03:18:42.482Z,93959.00
2023-01-19T03:19:42.453Z,93961.00
2023-01-19T03:20:42.438Z,93962.00
2023-01-19T03:21:42.426Z,93964.00
2023-01-19T03:22:42.417Z,93961.00
2023-01-19T03:23:42.410Z,93966.00
2023-01-19T03:24:42.410Z,93970.00
2023-01-19T03:25:42.392Z,93972.00
2023-01-19T03:26:42.388Z,93974.00
2023-01-19T03:27:42.376Z,93976.00
2023-01-19T03:28:42.369Z,93978.00
2023-01-19T03:29:42.354Z,93980.00
2023-01-19T03:30:42.437Z,93982.00
2023-01-19T03:31:42.345Z,93982.00
2023-01-19T03:32:42.333Z,93982.00
2023-01-19T03:33:42.325Z,93982.00
2023-01-19T03:34:42.334Z,93982.00
2023-01-19T03:35:42.315Z,93982.00
2023-01-19T03:36:42.288Z,93982.00
2023-01-19T03:37:42.289Z,93984.00
2023-01-19T03:38:42.275Z,93986.00
2023-01-19T03:39:42.274Z,93988.00
2023-01-19T03:40:42.258Z,93986.00
2023-01-19T03:41:42.243Z,93988.00
2023-01-19T03:42:42.240Z,93990.00
2023-01-19T03:43:42.227Z,93990.00
2023-01-19T03:44:42.217Z,93990.00
2023-01-19T03:45:42.207Z,93988.00
2023-01-19T03:46:42.203Z,93988.00
2023-01-19T03:47:42.189Z,93986.00
2023-01-19T03:48:42.194Z,93986.00
2023-01-19T03:49:42.173Z,93988.00
2023-01-19T03:50:42.189Z,93990.00
2023-01-19T03:51:42.173Z,93992.00
2023-01-19T03:52:42.147Z,93986.00
2023-01-19T03:53:42.140Z,93994.00
2023-01-19T03:54:42.138Z,93996.00
2023-01-19T03:55:42.120Z,93996.00
2023-01-19T03:56:42.114Z,93998.00
2023-01-19T03:57:42.105Z,94000.00
2023-01-19T03:58:42.090Z,93998.00
2023-01-19T03:59:42.086Z,94000.00
2023-01-19T04:00:42.069Z,94000.00
2023-01-19T04:01:42.189Z,94002.00
2023-01-19T04:02:42.124Z,94006.00
2023-01-19T04:03:42.041Z,94006.00
2023-01-19T04:04:42.041Z,94006.00
2023-01-19T04:05:42.025Z,94008.00
2023-01-19T04:06:42.041Z,94008.00
2023-01-19T04:07:42.011Z,94008.00
2023-01-19T04:08:42.001Z,94010.00
2023-01-19T04:09:41.988Z,94012.00
2023-01-19T04:10:41.995Z,94014.00
2023-01-19T04:11:41.969Z,94014.00
2023-01-19T04:12:41.995Z,94014.00
2023-01-19T04:13:41.963Z,94014.00
2023-01-19T04:14:41.944Z,94016.00
2023-01-19T04:15:42.024Z,94017.00
2023-01-19T04:16:41.934Z,94017.00
2023-01-19T04:17:41.919Z,94019.00
2023-01-19T04:18:41.907Z,94017.00
2023-01-19T04:19:41.899Z,94017.00
2023-01-19T04:20:41.890Z,94016.00
2023-01-19T04:21:41.883Z,94019.00
2023-01-19T04:22:41.895Z,94019.00
2023-01-19T04:23:41.862Z,94017.00
2023-01-19T04:24:41.856Z,94016.00
2023-01-19T04:25:41.856Z,94017.00
2023-01-19T04:26:41.837Z,94017.00
2023-01-19T04:27:41.824Z,94017.00
2023-01-19T04:28:41.826Z,94019.00
2023-01-19T04:29:41.810Z,94017.00
2023-01-19T04:30:41.800Z,94017.00
2023-01-19T04:31:41.803Z,94017.00
2023-01-19T04:32:41.793Z,94017.00
2023-01-19T04:33:41.772Z,94019.00
2023-01-19T04:34:41.764Z,94017.00
2023-01-19T04:35:41.759Z,94017.00
2023-01-19T04:36:41.750Z,94016.00
2023-01-19T04:37:41.740Z,94019.00
2023-01-19T04:38:41.754Z,94019.00
2023-01-19T04:39:41.721Z,94017.00
2023-01-19T04:40:41.706Z,94014.00
2023-01-19T04:41:41.696Z,94019.00
2023-01-19T04:42:41.688Z,94014.00
2023-01-19T04:43:41.723Z,94021.00
2023-01-19T04:44:41.682Z,94021.00
2023-01-19T04:45:41.662Z,94023.00
2023-01-19T04:46:41.786Z,94023.00
2023-01-19T04:47:41.638Z,94017.00
2023-01-19T04:48:42.297Z,94021.00
2023-01-19T04:49:41.665Z,94021.00
2023-01-19T04:50:41.620Z,94019.00
2023-01-19T04:51:41.606Z,94019.00
2023-01-19T04:52:41.596Z,94021.00
2023-01-19T04:53:41.587Z,94016.00
2023-01-19T04:54:41.624Z,94017.00
2023-01-19T04:55:41.568Z,94017.00
2023-01-19T04:56:41.556Z,94017.00
2023-01-19T04:57:41.560Z,94023.00
2023-01-19T04:58:41.556Z,94017.00
2023-01-19T04:59:41.545Z,94017.00
2023-01-19T05:00:41.527Z,94023.00
2023-01-19T05:01:41.637Z,94025.00
2023-01-19T05:02:41.572Z,94023.00
2023-01-19T05:03:41.498Z,94025.00
2023-01-19T05:04:41.489Z,94029.00
2023-01-19T05:05:41.484Z,94033.00
2023-01-19T05:06:41.470Z,94027.00
2023-01-19T05:07:41.461Z,94033.00
2023-01-19T05:08:42.200Z,94027.00
2023-01-19T05:09:41.442Z,94031.00
2023-01-19T05:10:41.459Z,94027.00
2023-01-19T05:11:41.425Z,94031.00
2023-01-19T05:12:41.414Z,94033.00
2023-01-19T05:13:41.405Z,94035.00
2023-01-19T05:14:41.397Z,94037.00
2023-01-19T05:15:41.389Z,94037.00
2023-01-19T05:16:41.384Z,94039.00
2023-01-19T05:17:41.375Z,94039.00
2023-01-19T05:18:41.358Z,94041.00
2023-01-19T05:19:41.347Z,94045.00
2023-01-19T05:20:41.342Z,94041.00
2023-01-19T05:21:41.358Z,94047.00
2023-01-19T05:22:41.336Z,94043.00
2023-01-19T05:23:41.325Z,94047.00
2023-01-19T05:24:41.304Z,94045.00
2023-01-19T05:25:41.329Z,94045.00
2023-01-19T05:26:41.317Z,94045.00
2023-01-19T05:27:41.287Z,94047.00
2023-01-19T05:28:41.273Z,94051.00
2023-01-19T05:29:41.262Z,94053.00
2023-01-19T05:30:41.291Z,94055.00
2023-01-19T05:31:41.285Z,94053.00
2023-01-19T05:32:41.249Z,94055.00
2023-01-19T05:33:41.261Z,94057.00
2023-01-19T05:34:41.215Z,94055.00
2023-01-19T05:35:41.205Z,94057.00
2023-01-19T05:36:41.205Z,94055.00
2023-01-19T05:37:41.193Z,94055.00
2023-01-19T05:38:41.188Z,94061.00
2023-01-19T05:39:41.179Z,94059.00
2023-01-19T05:40:41.181Z,94061.00
2023-01-19T05:41:41.155Z,94059.00
2023-01-19T05:42:41.166Z,94061.00
2023-01-19T05:43:41.177Z,94059.00
2023-01-19T05:44:41.161Z,94057.00
2023-01-19T05:45:41.135Z,94059.00
2023-01-19T05:46:41.208Z,94059.00
2023-01-19T05:47:41.154Z,94061.00
2023-01-19T05:48:41.100Z,94059.00
2023-01-19T05:49:41.097Z,94059.00
2023-01-19T05:50:41.078Z,94061.00
2023-01-19T05:51:41.070Z,94061.00
2023-01-19T05:52:41.053Z,94064.00
2023-01-19T05:53:41.052Z,94064.00
2023-01-19T05:54:41.030Z,94066.00
2023-01-19T05:55:41.027Z,94066.00
2023-01-19T05:56:41.014Z,94072.00
2023-01-19T05:57:41.007Z,94072.00
2023-01-19T05:58:41.027Z,94072.00
2023-01-19T05:59:40.996Z,94076.00
2023-01-19T06:00:40.984Z,94078.00
2023-01-19T06:01:41.007Z,94078.00
2023-01-19T06:02:41.105Z,94082.00
2023-01-19T06:03:40.967Z,94084.00
2023-01-19T06:04:40.943Z,94082.00
2023-01-19T06:05:40.969Z,94082.00
2023-01-19T06:06:40.929Z,94084.00
2023-01-19T06:07:40.919Z,94084.00
2023-01-19T06:08:40.904Z,94084.00
2023-01-19T06:09:40.895Z,94084.00
2023-01-19T06:10:40.884Z,94084.00
2023-01-19T06:11:40.894Z,94084.00
2023-01-19T06:12:41.013Z,94084.00
2023-01-19T06:13:42.087Z,94084.00
2023-01-19T06:14:40.903Z,94084.00
2023-01-19T06:15:40.850Z,94086.00
2023-01-19T06:16:40.870Z,94088.00
2023-01-19T06:17:40.847Z,94088.00
2023-01-19T06:18:40.974Z,94086.00
2023-01-19T06:19:40.811Z,94088.00
2023-01-19T06:20:40.796Z,94088.00
2023-01-19T06:21:40.797Z,94092.00
2023-01-19T06:22:40.795Z,94092.00
2023-01-19T06:23:40.986Z,94092.00
2023-01-19T06:24:40.758Z,94094.00
2023-01-19T06:25:40.748Z,94096.00
2023-01-19T06:26:40.757Z,94096.00
2023-01-19T06:27:40.731Z,94096.00
2023-01-19T06:28:40.990Z,94098.00
2023-01-19T06:29:40.719Z,94098.00
2023-01-19T06:30:40.783Z,94100.00
2023-01-19T06:31:40.703Z,94100.00
2023-01-19T06:32:40.698Z,94098.00
2023-01-19T06:33:40.681Z,94098.00
2023-01-19T06:34:40.673Z,94098.00
2023-01-19T06:35:40.659Z,94100.00
2023-01-19T06:36:40.657Z,94100.00
2023-01-19T06:37:41.101Z,94100.00
2023-01-19T06:38:40.633Z,94104.00
2023-01-19T06:39:41.005Z,94102.00
2023-01-19T06:40:40.619Z,94104.00
2023-01-19T06:41:40.620Z,94106.00
2023-01-19T06:42:40.597Z,94104.00
2023-01-19T06:43:40.590Z,94106.00
2023-01-19T06:44:40.991Z,94111.00
2023-01-19T06:45:40.639Z,94108.00
2023-01-19T06:46:40.599Z,94108.00
2023-01-19T06:47:41.001Z,94113.00
2023-01-19T06:48:40.548Z,94113.00
2023-01-19T06:49:40.989Z,94115.00
2023-01-19T06:50:40.550Z,94115.00
2023-01-19T06:51:40.525Z,94115.00
2023-01-19T06:52:40.622Z,94113.00
2023-01-19T06:54:40.993Z,94117.00
2023-01-19T06:55:40.501Z,94117.00
2023-01-19T06:56:40.475Z,94127.00
2023-01-19T06:57:40.476Z,94127.00
2023-01-19T06:58:40.491Z,94125.00
2023-01-19T06:59:40.781Z,94127.00
2023-01-19T07:00:40.446Z,94127.00
2023-01-19T07:02:41.599Z,94131.00
2023-01-19T07:04:41.409Z,94133.00
2023-01-19T07:06:40.392Z,94133.00
2023-01-19T07:08:40.370Z,94135.00
2023-01-19T07:09:41.373Z,94135.00
2023-01-19T07:11:25.730Z,94137.00
2023-01-19T07:12:40.527Z,94135.00
2023-01-19T07:13:40.335Z,94137.00
2023-01-19T07:14:43.536Z,94137.00
2023-01-19T07:15:40.310Z,94137.00
2023-01-19T07:16:40.325Z,94137.00
2023-01-19T07:17:40.502Z,94135.00
2023-01-19T07:18:40.318Z,94137.00
2023-01-19T07:19:40.303Z,94133.00
2023-01-19T07:20:40.273Z,94137.00
2023-01-19T07:21:40.276Z,94137.00
2023-01-19T07:22:40.511Z,94139.00
2023-01-19T07:23:40.248Z,94143.00
2023-01-19T07:24:40.235Z,94145.00
2023-01-19T07:25:40.224Z,94149.00
2023-01-19T07:26:40.508Z,94151.00
2023-01-19T07:27:40.614Z,94151.00
2023-01-19T07:28:40.229Z,94151.00
2023-01-19T07:29:40.212Z,94153.00
2023-01-19T07:30:40.332Z,94153.00
2023-01-19T07:31:40.687Z,94155.00
2023-01-19T07:33:40.197Z,94162.00
2023-01-19T07:34:40.213Z,94162.00
2023-01-19T07:35:40.142Z,94164.00
2023-01-19T07:36:40.883Z,94164.00
2023-01-19T07:39:40.149Z,94166.00
2023-01-19T07:40:40.195Z,94166.00
2023-01-19T07:41:40.958Z,94170.00
2023-01-19T07:45:40.614Z,94172.00
2023-01-19T07:46:40.214Z,94176.00
2023-01-19T07:47:40.224Z,94176.00
2023-01-19T07:48:40.134Z,94178.00
2023-01-19T07:49:40.180Z,94180.00
2023-01-19T07:50:40.573Z,94182.00
2023-01-19T07:52:40.109Z,94186.00
2023-01-19T07:53:43.740Z,94186.00
2023-01-19T07:55:40.182Z,94188.00
2023-01-19T07:56:40.075Z,94188.00
2023-01-19T07:57:40.069Z,94190.00
2023-01-19T07:58:40.052Z,94190.00
2023-01-19T07:59:40.288Z,94190.00
2023-01-19T08:01:40.256Z,94192.00
2023-01-19T08:02:40.012Z,94190.00
2023-01-19T08:03:40.081Z,94188.00
2023-01-19T08:05:39.985Z,94190.00
2023-01-19T08:07:39.962Z,94190.00
2023-01-19T08:08:39.975Z,94190.00
2023-01-19T08:09:39.930Z,94192.00
2023-01-19T08:10:39.931Z,94192.00
2023-01-19T08:11:40.967Z,94192.00
2023-01-19T08:12:40.051Z,94192.00
2023-01-19T08:13:40.064Z,94192.00
2023-01-19T08:14:40.897Z,94194.00
2023-01-19T08:15:39.913Z,94194.00
2023-01-19T08:16:39.901Z,94198.00
2023-01-19T08:17:40.063Z,94198.00
2023-01-19T08:18:39.884Z,94202.00
2023-01-19T08:19:41.525Z,94204.00
2023-01-19T08:20:39.821Z,94204.00
2023-01-19T08:21:40.067Z,94204.00
2023-01-19T08:23:40.205Z,94204.00
2023-01-19T08:24:39.835Z,94204.00
2023-01-19T08:26:39.829Z,94207.00
2023-01-19T08:27:39.757Z,94211.00
2023-01-19T08:29:39.777Z,94219.00
2023-01-19T08:30:39.951Z,94221.00
2023-01-19T08:31:39.984Z,94217.00
2023-01-19T08:32:39.860Z,94219.00
2023-01-19T08:34:11.880Z,94219.00
2023-01-19T08:35:40.765Z,94219.00
2023-01-19T08:36:39.706Z,94219.00
2023-01-19T08:37:39.689Z,94219.00
2023-01-19T08:38:40.096Z,94221.00
2023-01-19T08:39:42.869Z,94221.00
2023-01-19T08:40:39.716Z,94221.00
2023-01-19T08:41:39.660Z,94223.00
2023-01-19T08:42:42.850Z,94223.00
2023-01-19T08:43:40.078Z,94223.00
2023-01-19T08:44:49.723Z,94225.00
2023-01-19T08:45:39.626Z,94223.00
2023-01-19T08:47:39.701Z,94223.00
2023-01-19T08:48:40.206Z,94223.00
2023-01-19T08:49:40.082Z,94227.00
2023-01-19T08:50:39.623Z,94223.00
2023-01-19T08:51:39.552Z,94223.00
2023-01-19T08:52:39.529Z,94223.00
2023-01-19T08:53:39.535Z,94225.00
2023-01-19T08:54:39.600Z,94227.00
2023-01-19T08:55:39.529Z,94227.00
2023-01-19T08:56:39.634Z,94231.00
2023-01-19T08:57:39.509Z,94235.00
2023-01-19T08:58:39.503Z,94231.00
2023-01-19T08:59:39.568Z,94231.00
2023-01-19T09:00:39.530Z,94231.00
2023-01-19T09:01:39.588Z,94229.00
2023-01-19T09:02:39.618Z,94229.00
2023-01-19T09:03:39.457Z,94231.00
2023-01-19T09:04:39.647Z,94231.00
2023-01-19T09:05:39.428Z,94235.00
2023-01-19T09:06:39.404Z,94233.00
2023-01-19T09:07:39.423Z,94235.00
2023-01-19T09:08:39.394Z,94235.00
2023-01-19T09:09:39.553Z,94239.00
2023-01-19T09:10:39.407Z,94241.00
2023-01-19T09:11:39.361Z,94241.00
2023-01-19T09:12:39.556Z,94239.00
2023-01-19T09:13:39.338Z,94245.00
2023-01-19T09:14:39.549Z,94245.00
2023-01-19T09:15:39.491Z,94251.00
2023-01-19T09:16:40.335Z,94247.00
2023-01-19T09:17:39.307Z,94251.00
2023-01-19T09:18:39.307Z,94251.00
2023-01-19T09:19:39.294Z,94255.00
2023-01-19T09:20:39.326Z,94257.00
2023-01-19T09:21:39.272Z,94257.00
2023-01-19T09:22:39.603Z,94260.00
2023-01-19T09:23:39.257Z,94262.00
2023-01-19T09:24:39.280Z,94260.00
2023-01-19T09:25:39.246Z,94260.00
2023-01-19T09:26:39.385Z,94262.00
2023-01-19T09:27:39.558Z,94262.00
2023-01-19T09:28:39.214Z,94268.00
2023-01-19T09:29:39.207Z,94270.00
2023-01-19T09:30:39.244Z,94272.00
2023-01-19T09:31:39.206Z,94272.00
2023-01-19T09:32:39.553Z,94274.00
2023-01-19T09:33:39.167Z,94274.00
2023-01-19T09:34:39.157Z,94274.00
2023-01-19T09:35:39.562Z,94276.00
2023-01-19T09:36:39.155Z,94268.00
2023-01-19T09:37:39.198Z,94270.00
2023-01-19T09:38:39.143Z,94272.00
2023-01-19T09:39:39.123Z,94268.00
2023-01-19T09:40:41.929Z,94272.00
2023-01-19T09:41:39.101Z,94266.00
2023-01-19T09:42:39.129Z,94266.00
2023-01-19T09:43:39.088Z,94266.00
2023-01-19T09:44:39.676Z,94266.00
2023-01-19T09:45:39.743Z,94268.00
2023-01-19T09:46:39.781Z,94266.00
2023-01-19T09:47:39.059Z,94272.00
2023-01-19T09:48:39.037Z,94274.00
2023-01-19T09:49:39.033Z,94274.00
2023-01-19T09:50:39.801Z,94280.00
2023-01-19T09:51:39.070Z,94276.00
2023-01-19T09:52:39.066Z,94278.00
2023-01-19T09:53:38.993Z,94276.00
2023-01-19T09:54:38.990Z,94274.00
2023-01-19T09:55:38.972Z,94272.00
2023-01-19T09:56:38.959Z,94270.00
2023-01-19T09:57:39.066Z,94272.00
2023-01-19T09:58:39.038Z,94266.00
2023-01-19T09:59:38.950Z,94268.00
2023-01-19T10:00:39.149Z,94262.00
2023-01-19T10:01:38.963Z,94266.00
2023-01-19T10:02:38.981Z,94264.00
2023-01-19T10:03:38.897Z,94266.00
2023-01-19T10:04:38.924Z,94266.00
2023-01-19T10:05:39.073Z,94268.00
2023-01-19T10:06:39.071Z,94266.00
2023-01-19T10:07:38.861Z,94270.00
2023-01-19T10:08:38.857Z,94272.00
2023-01-19T10:09:38.861Z,94270.00
2023-01-19T10:10:39.073Z,94272.00
2023-01-19T10:11:51.931Z,94272.00
2023-01-19T10:12:38.832Z,94272.00
2023-01-19T10:13:38.805Z,94272.00
2023-01-19T10:14:38.822Z,94270.00
2023-01-19T10:15:39.080Z,94274.00
2023-01-19T10:16:38.793Z,94274.00
2023-01-19T10:17:38.776Z,94274.00
2023-01-19T10:18:38.768Z,94276.00
2023-01-19T10:19:38.751Z,94274.00
2023-01-19T10:20:39.076Z,94272.00
2023-01-19T10:21:38.741Z,94276.00
2023-01-19T10:22:38.791Z,94274.00
2023-01-19T10:23:38.723Z,94274.00
2023-01-19T10:24:38.710Z,94270.00
2023-01-19T10:25:39.138Z,94274.00
2023-01-19T10:26:38.697Z,94272.00
2023-01-19T10:27:38.723Z,94276.00
2023-01-19T10:28:38.698Z,94274.00
2023-01-19T10:29:38.715Z,94272.00
2023-01-19T10:30:38.981Z,94276.00
2023-01-19T10:31:39.311Z,94274.00
2023-01-19T10:32:38.825Z,94274.00
2023-01-19T10:33:38.656Z,94272.00
2023-01-19T10:34:38.625Z,94270.00
2023-01-19T10:35:38.614Z,94270.00
2023-01-19T10:37:38.660Z,94270.00
2023-01-19T10:38:38.631Z,94268.00
2023-01-19T10:39:38.896Z,94270.00
2023-01-19T10:40:38.597Z,94270.00
2023-01-19T10:41:38.635Z,94268.00
2023-01-19T10:42:38.655Z,94268.00
2023-01-19T10:43:38.550Z,94266.00
2023-01-19T10:44:38.590Z,94270.00
2023-01-19T10:45:38.599Z,94268.00
2023-01-19T10:46:38.668Z,94268.00
2023-01-19T10:47:38.503Z,94268.00
2023-01-19T10:48:38.518Z,94264.00
2023-01-19T10:49:38.593Z,94262.00
2023-01-19T10:50:38.591Z,94264.00
2023-01-19T10:51:38.469Z,94262.00
2023-01-19T10:52:38.610Z,94262.00
2023-01-19T10:53:38.457Z,94262.00
2023-01-19T10:54:38.450Z,94264.00
2023-01-19T10:55:38.439Z,94262.00
2023-01-19T10:56:38.547Z,94264.00
2023-01-19T10:57:38.447Z,94264.00
2023-01-19T10:58:38.434Z,94262.00
2023-01-19T10:59:38.491Z,94262.00
2023-01-19T11:00:38.546Z,94260.00
2023-01-19T11:01:38.680Z,94260.00
2023-01-19T11:02:38.658Z,94262.00
2023-01-19T11:03:38.432Z,94260.00
2023-01-19T11:04:38.414Z,94262.00
2023-01-19T11:05:38.624Z,94260.00
2023-01-19T11:06:38.611Z,94257.00
2023-01-19T11:07:38.341Z,94258.00
2023-01-19T11:08:38.584Z,94257.00
2023-01-19T11:09:38.331Z,94257.00
2023-01-19T11:10:37.312Z,94257.00
2023-01-19T11:11:38.602Z,94257.00
2023-01-19T11:12:38.345Z,94255.00
2023-01-19T11:13:38.288Z,94255.00
2023-01-19T11:14:38.282Z,94257.00
2023-01-19T11:15:38.275Z,94257.00
2023-01-19T11:16:38.633Z,94255.00
2023-01-19T11:17:38.251Z,94257.00
2023-01-19T11:18:38.268Z,94255.00
2023-01-19T11:19:38.231Z,94255.00
2023-01-19T11:20:38.231Z,94255.00
2023-01-19T11:21:38.602Z,94249.00
2023-01-19T11:22:39.097Z,94251.00
2023-01-19T11:23:38.225Z,94251.00
2023-01-19T11:24:38.204Z,94247.00
2023-01-19T11:25:38.183Z,94245.00
2023-01-19T11:26:38.609Z,94243.00
2023-01-19T11:27:38.617Z,94245.00
2023-01-19T11:28:38.150Z,94241.00
2023-01-19T11:29:38.144Z,94241.00
2023-01-19T11:30:38.133Z,94239.00
2023-01-19T11:31:38.675Z,94245.00
2023-01-19T11:32:38.162Z,94243.00
2023-01-19T11:33:38.115Z,94245.00
2023-01-19T11:34:38.583Z,94239.00
2023-01-19T11:35:38.109Z,94241.00
2023-01-19T11:36:38.568Z,94241.00
2023-01-19T11:37:38.491Z,94239.00
2023-01-19T11:38:38.065Z,94237.00
2023-01-19T11:39:38.480Z,94235.00
2023-01-19T11:40:38.043Z,94235.00
2023-01-19T11:41:38.110Z,94231.00
2023-01-19T11:42:38.045Z,94229.00
2023-01-19T11:43:48.708Z,94227.00
2023-01-19T11:44:38.009Z,94229.00
2023-01-19T11:45:38.180Z,94225.00
2023-01-19T11:46:37.990Z,94227.00
2023-01-19T11:47:37.999Z,94233.00
2023-01-19T11:48:37.980Z,94231.00
2023-01-19T11:49:38.114Z,94231.00
2023-01-19T11:50:37.993Z,94225.00
2023-01-19T11:51:37.946Z,94225.00
2023-01-19T11:52:37.940Z,94221.00
2023-01-19T11:53:37.940Z,94217.00
2023-01-19T11:54:37.925Z,94219.00
2023-01-19T11:55:37.907Z,94217.00
2023-01-19T11:56:37.906Z,94217.00
2023-01-19T11:57:37.915Z,94217.00
2023-01-19T11:58:37.889Z,94215.00
2023-01-19T11:59:37.873Z,94219.00
2023-01-19T12:00:37.872Z,94217.00
2023-01-19T12:01:37.856Z,94215.00
2023-01-19T12:02:38.121Z,94215.00
2023-01-19T12:03:37.892Z,94217.00
2023-01-19T12:04:37.827Z,94217.00
2023-01-19T12:05:38.014Z,94215.00
2023-01-19T12:06:37.831Z,94213.00
2023-01-19T12:07:38.198Z,94215.00
2023-01-19T12:08:37.792Z,94213.00
2023-01-19T12:09:38.689Z,94215.00
2023-01-19T12:10:37.770Z,94211.00
2023-01-19T12:11:37.767Z,94213.00
2023-01-19T12:12:38.131Z,94213.00
2023-01-19T12:13:37.744Z,94213.00
2023-01-19T12:14:37.731Z,94207.00
2023-01-19T12:15:37.735Z,94209.00
2023-01-19T12:16:37.828Z,94213.00
2023-01-19T12:17:38.152Z,94209.00
2023-01-19T12:18:37.725Z,94209.00
2023-01-19T12:19:37.689Z,94209.00
2023-01-19T12:20:37.682Z,94209.00
2023-01-19T12:21:38.120Z,94207.00
2023-01-19T12:22:37.710Z,94213.00
2023-01-19T12:23:37.664Z,94211.00
2023-01-19T12:24:37.737Z,94211.00
2023-01-19T12:25:37.633Z,94213.00
2023-01-19T12:26:38.171Z,94211.00
2023-01-19T12:27:37.618Z,94211.00
2023-01-19T12:28:37.604Z,94211.00
2023-01-19T12:29:37.592Z,94213.00
2023-01-19T12:30:37.752Z,94213.00
2023-01-19T12:31:37.715Z,94209.00
2023-01-19T12:32:37.628Z,94215.00
2023-01-19T12:33:37.578Z,94211.00
2023-01-19T12:34:37.554Z,94211.00
2023-01-19T12:35:37.538Z,94209.00
2023-01-19T12:36:37.542Z,94211.00
2023-01-19T12:37:37.720Z,94207.00
2023-01-19T12:38:37.564Z,94209.00
2023-01-19T12:39:37.514Z,94206.00
2023-01-19T12:40:37.492Z,94206.00
2023-01-19T12:41:37.490Z,94206.00
2023-01-19T12:42:37.638Z,94204.00
2023-01-19T12:43:37.641Z,94202.00
2023-01-19T12:44:37.461Z,94204.00
2023-01-19T12:45:37.456Z,94204.00
2023-01-19T12:46:37.440Z,94206.00
2023-01-19T12:47:37.439Z,94204.00
2023-01-19T12:48:37.455Z,94204.00
2023-01-19T12:49:37.412Z,94202.00
2023-01-19T12:50:37.411Z,94200.00
2023-01-19T12:51:37.397Z,94202.00
2023-01-19T12:52:37.395Z,94200.00
2023-01-19T12:53:37.377Z,94200.00
2023-01-19T12:54:37.718Z,94200.00
2023-01-19T12:55:38.377Z,94198.00
2023-01-19T12:56:37.352Z,94198.00
2023-01-19T12:57:37.345Z,94202.00
2023-01-19T12:58:37.333Z,94200.00
2023-01-19T12:59:37.330Z,94198.00
2023-01-19T13:00:37.312Z,94202.00